Time,TemperatureF,DewpointF,PressureIn,WindDirection,WindDirectionDegrees,WindSpeedMPH,WindSpeedGustMPH,Humidity,HourlyPrecipIn,Conditions,Clouds,dailyrainin,SolarRadiationWatts/m^2,SoftwareType,DateUTC
2013-08-26 00:02:00,56.0,56.0,-100.00,West,272,18.0,26.0,100,0.00,,,0.00,0.000000,,2013-08-26 07:02:00,
2013-08-26 00:11:00,56.0,56.0,-100.00,West,272,18.0,26.0,100,0.00,,,0.00,0.000000,,2013-08-26 07:11:00,
2013-08-26 00:21:00,56.0,56.0,-100.00,West,272,18.0,26.0,100,0.00,,,0.00,0.000000,,2013-08-26 07:21:00,
2013-08-26 00:52:00,55.0,55.0,-100.00,West,273,16.0,22.0,100,0.00,,,0.00,0.000000,,2013-08-26 07:52:00,
2013-08-26 01:02:00,55.0,55.0,-100.00,West,273,16.0,22.0,100,0.00,,,0.00,0.000000,,2013-08-26 08:02:00,
2013-08-26 01:11:00,55.0,55.0,-100.00,West,273,16.0,22.0,100,0.00,,,0.00,0.000000,,2013-08-26 08:11:00,
2013-08-26 01:22:00,55.0,55.0,-100.00,West,273,16.0,22.0,100,0.00,,,0.00,0.000000,,2013-08-26 08:22:00,
2013-08-26 01:52:00,55.0,55.0,-100.00,West,269,12.0,20.0,100,0.00,,,0.00,0.000000,,2013-08-26 08:52:00,
2013-08-26 02:02:00,55.0,55.0,-100.00,West,269,12.0,20.0,100,0.00,,,0.00,0.000000,,2013-08-26 09:02:00,
2013-08-26 02:11:00,55.0,55.0,-100.00,West,269,12.0,20.0,100,0.00,,,0.00,0.000000,,2013-08-26 09:11:00,
2013-08-26 02:21:00,55.0,55.0,-100.00,West,269,12.0,20.0,100,0.00,,,0.00,0.000000,,2013-08-26 09:21:00,
2013-08-26 02:54:00,55.0,55.0,-100.00,West,270,12.0,17.0,100,0.00,,,0.00,0.000000,,2013-08-26 09:54:00,
2013-08-26 03:03:00,55.0,55.0,-100.00,West,270,12.0,17.0,100,0.00,,,0.00,0.000000,,2013-08-26 10:03:00,
2013-08-26 03:12:00,55.0,55.0,-100.00,West,270,12.0,17.0,100,0.00,,,0.00,0.000000,,2013-08-26 10:12:00,
2013-08-26 03:22:00,55.0,55.0,-100.00,West,270,12.0,17.0,100,0.00,,,0.00,0.000000,,2013-08-26 10:22:00,
2013-08-26 03:52:00,55.0,55.0,-100.00,West,259,11.0,15.0,100,0.00,,,0.00,0.000000,,2013-08-26 10:52:00,
2013-08-26 04:02:00,55.0,55.0,-100.00,West,259,11.0,15.0,100,0.00,,,0.00,0.000000,,2013-08-26 11:02:00,
2013-08-26 04:12:00,55.0,55.0,-100.00,West,259,11.0,15.0,100,0.00,,,0.00,0.000000,,2013-08-26 11:12:00,
2013-08-26 04:22:00,55.0,55.0,-100.00,West,259,11.0,15.0,100,0.00,,,0.00,0.000000,,2013-08-26 11:22:00,
2013-08-26 04:52:00,54.0,54.0,-100.00,West,260,11.0,15.0,100,0.00,,,0.00,0.000000,,2013-08-26 11:52:00,
2013-08-26 05:01:00,54.0,54.0,-100.00,West,260,11.0,15.0,100,0.00,,,0.00,0.000000,,2013-08-26 12:01:00,
2013-08-26 05:12:00,54.0,54.0,-100.00,West,260,11.0,15.0,100,0.00,,,0.00,0.000000,,2013-08-26 12:12:00,
2013-08-26 05:21:00,54.0,54.0,-100.00,West,260,11.0,15.0,100,0.00,,,0.00,0.000000,,2013-08-26 12:21:00,
2013-08-26 05:52:00,54.0,54.0,-100.00,West,269,14.0,19.0,100,0.00,,,0.00,0.000000,,2013-08-26 12:52:00,
2013-08-26 06:02:00,54.0,54.0,-100.00,West,269,14.0,19.0,100,0.00,,,0.00,0.000000,,2013-08-26 13:02:00,
2013-08-26 06:11:00,54.0,54.0,-100.00,West,269,14.0,19.0,100,0.00,,,0.00,0.000000,,2013-08-26 13:11:00,
2013-08-26 06:21:00,54.0,54.0,-100.00,West,269,14.0,19.0,100,0.00,,,0.00,0.000000,,2013-08-26 13:21:00,
2013-08-26 06:52:00,54.0,54.0,-100.00,West,271,20.0,24.0,100,0.00,,,0.00,0.000000,,2013-08-26 13:52:00,
2013-08-26 07:02:00,54.0,54.0,-100.00,West,271,20.0,24.0,100,0.00,,,0.00,0.000000,,2013-08-26 14:02:00,
2013-08-26 07:11:00,54.0,54.0,-100.00,West,271,20.0,24.0,100,0.00,,,0.00,0.000000,,2013-08-26 14:11:00,
2013-08-26 07:22:00,54.0,54.0,-100.00,West,271,20.0,24.0,100,0.00,,,0.00,0.000000,,2013-08-26 14:22:00,
2013-08-26 07:52:00,54.0,54.0,-100.00,West,269,16.0,23.0,100,0.00,,,0.00,51.000000,,2013-08-26 14:52:00,
2013-08-26 08:01:00,54.0,54.0,-100.00,West,269,16.0,23.0,100,0.00,,,0.00,51.000000,,2013-08-26 15:01:00,
2013-08-26 08:12:00,54.0,54.0,-100.00,West,269,16.0,23.0,100,0.00,,,0.00,51.000000,,2013-08-26 15:12:00,
2013-08-26 08:22:00,54.0,54.0,-100.00,West,269,16.0,23.0,100,0.00,,,0.00,51.000000,,2013-08-26 15:22:00,
2013-08-26 09:59:00,57.0,57.0,-100.00,West,270,17.0,21.0,100,-99.99,,,0.00,383.000000,,2013-08-26 16:59:00,
2013-08-26 10:06:00,57.0,57.0,-100.00,West,270,17.0,21.0,100,-99.99,,,0.00,383.000000,,2013-08-26 17:06:00,
2013-08-26 10:12:00,57.0,57.0,-100.00,West,270,17.0,21.0,100,-99.99,,,0.00,383.000000,,2013-08-26 17:12:00,
2013-08-26 10:24:00,57.0,57.0,-100.00,West,270,17.0,21.0,100,-99.99,,,0.00,383.000000,,2013-08-26 17:24:00,
2013-08-26 10:53:00,63.0,57.0,-100.00,West,273,15.0,21.0,80,0.00,,,0.00,572.000000,,2013-08-26 17:53:00,
2013-08-26 11:01:00,63.0,57.0,-100.00,West,273,15.0,21.0,80,0.00,,,0.00,572.000000,,2013-08-26 18:01:00,
2013-08-26 11:12:00,63.0,57.0,-100.00,West,273,15.0,21.0,80,0.00,,,0.00,572.000000,,2013-08-26 18:12:00,
2013-08-26 11:21:00,63.0,57.0,-100.00,West,273,15.0,21.0,80,0.00,,,0.00,572.000000,,2013-08-26 18:21:00,
2013-08-26 11:52:00,65.0,55.0,-100.00,West,269,15.0,21.0,70,0.00,,,0.00,717.000000,,2013-08-26 18:52:00,
2013-08-26 12:01:00,65.0,55.0,-100.00,West,269,15.0,21.0,70,0.00,,,0.00,717.000000,,2013-08-26 19:01:00,
2013-08-26 12:11:00,65.0,55.0,-100.00,West,269,15.0,21.0,70,0.00,,,0.00,717.000000,,2013-08-26 19:11:00,
2013-08-26 12:22:00,65.0,55.0,-100.00,West,269,15.0,21.0,70,0.00,,,0.00,717.000000,,2013-08-26 19:22:00,
2013-08-26 12:52:00,69.0,56.0,-100.00,West,273,17.0,21.0,63,0.00,,,0.00,818.000000,,2013-08-26 19:52:00,
2013-08-26 13:02:00,69.0,56.0,-100.00,West,273,17.0,21.0,63,0.00,,,0.00,818.000000,,2013-08-26 20:02:00,
2013-08-26 13:11:00,69.0,56.0,-100.00,West,273,17.0,21.0,63,0.00,,,0.00,818.000000,,2013-08-26 20:11:00,
2013-08-26 13:21:00,69.0,56.0,-100.00,West,273,17.0,21.0,63,0.00,,,0.00,818.000000,,2013-08-26 20:21:00,
2013-08-26 13:52:00,72.0,53.0,-100.00,West,270,15.0,22.0,51,0.00,,,0.00,864.000000,,2013-08-26 20:52:00,
2013-08-26 14:01:00,72.0,53.0,-100.00,West,270,15.0,22.0,51,0.00,,,0.00,864.000000,,2013-08-26 21:01:00,
2013-08-26 14:11:00,72.0,53.0,-100.00,West,270,15.0,22.0,51,0.00,,,0.00,864.000000,,2013-08-26 21:11:00,
2013-08-26 14:22:00,72.0,53.0,-100.00,West,270,15.0,22.0,51,0.00,,,0.00,864.000000,,2013-08-26 21:22:00,
2013-08-26 14:55:00,75.0,51.0,-100.00,WNW,285,13.0,22.0,43,0.00,,,0.00,854.000000,,2013-08-26 21:55:00,
2013-08-26 15:07:00,75.0,51.0,-100.00,WNW,285,13.0,22.0,43,0.00,,,0.00,854.000000,,2013-08-26 22:07:00,
2013-08-26 15:16:00,75.0,51.0,-100.00,WNW,285,13.0,22.0,43,0.00,,,0.00,854.000000,,2013-08-26 22:16:00,
2013-08-26 15:26:00,75.0,51.0,-100.00,WNW,285,13.0,22.0,43,0.00,,,0.00,854.000000,,2013-08-26 22:26:00,
2013-08-26 15:53:00,76.0,50.0,-100.00,WNW,283,13.0,22.0,40,0.00,,,0.00,783.000000,,2013-08-26 22:53:00,
2013-08-26 16:03:00,76.0,50.0,-100.00,WNW,283,13.0,22.0,40,0.00,,,0.00,783.000000,,2013-08-26 23:03:00,
2013-08-26 16:12:00,76.0,50.0,-100.00,WNW,283,13.0,22.0,40,0.00,,,0.00,783.000000,,2013-08-26 23:12:00,
2013-08-26 16:21:00,76.0,50.0,-100.00,WNW,283,13.0,22.0,40,0.00,,,0.00,783.000000,,2013-08-26 23:21:00,
2013-08-26 16:52:00,78.0,50.0,-100.00,West,277,15.0,22.0,37,0.00,,,0.00,658.000000,,2013-08-26 23:52:00,
2013-08-26 17:01:00,78.0,50.0,-100.00,West,277,15.0,22.0,37,0.00,,,0.00,658.000000,,2013-08-27 00:01:00,
2013-08-26 17:11:00,78.0,50.0,-100.00,West,277,15.0,22.0,37,0.00,,,0.00,658.000000,,2013-08-27 00:11:00,
2013-08-26 17:21:00,78.0,50.0,-100.00,West,277,15.0,22.0,37,0.00,,,0.00,658.000000,,2013-08-27 00:21:00,
2013-08-26 17:52:00,76.0,49.0,-100.00,West,275,19.0,25.0,38,0.00,,,0.00,499.000000,,2013-08-27 00:52:00,
2013-08-26 18:01:00,76.0,49.0,-100.00,West,275,19.0,25.0,38,0.00,,,0.00,499.000000,,2013-08-27 01:01:00,
2013-08-26 18:12:00,76.0,49.0,-100.00,West,275,19.0,25.0,38,0.00,,,0.00,499.000000,,2013-08-27 01:12:00,
2013-08-26 18:21:00,76.0,49.0,-100.00,West,275,19.0,25.0,38,0.00,,,0.00,499.000000,,2013-08-27 01:21:00,
2013-08-26 18:52:00,73.0,47.0,-100.00,West,274,18.0,26.0,40,0.00,,,0.00,314.000000,,2013-08-27 01:52:00,
2013-08-26 19:02:00,73.0,47.0,-100.00,West,274,18.0,26.0,40,0.00,,,0.00,314.000000,,2013-08-27 02:02:00,
2013-08-26 19:12:00,73.0,47.0,-100.00,West,274,18.0,26.0,40,0.00,,,0.00,314.000000,,2013-08-27 02:12:00,
2013-08-26 19:21:00,73.0,47.0,-100.00,West,274,18.0,26.0,40,0.00,,,0.00,314.000000,,2013-08-27 02:21:00,
2013-08-26 19:52:00,69.0,47.0,-100.00,West,272,16.0,23.0,46,0.00,,,0.00,127.000000,,2013-08-27 02:52:00,
2013-08-26 20:02:00,69.0,47.0,-100.00,West,272,16.0,23.0,46,0.00,,,0.00,127.000000,,2013-08-27 03:02:00,
2013-08-26 20:12:00,69.0,47.0,-100.00,West,272,16.0,23.0,46,0.00,,,0.00,127.000000,,2013-08-27 03:12:00,
2013-08-26 20:22:00,69.0,47.0,-100.00,West,272,16.0,23.0,46,0.00,,,0.00,127.000000,,2013-08-27 03:22:00,
2013-08-26 20:28:00,64.0,47.0,-100.00,West,261,13.0,20.0,55,0.00,,,0.00,5.000000,,2013-08-27 03:28:00,
2013-08-26 20:58:00,64.0,47.0,-100.00,West,261,13.0,20.0,55,0.00,,,0.00,5.000000,,2013-08-27 03:58:00,
2013-08-26 21:08:00,64.0,47.0,-100.00,West,261,13.0,20.0,55,0.00,,,0.00,5.000000,,2013-08-27 04:08:00,
2013-08-26 21:18:00,64.0,47.0,-100.00,West,261,13.0,20.0,55,0.00,,,0.00,5.000000,,2013-08-27 04:18:00,
2013-08-26 21:54:00,65.0,47.0,-100.00,West,271,14.0,18.0,52,0.00,,,0.00,0.000000,,2013-08-27 04:54:00,
2013-08-26 22:05:00,65.0,47.0,-100.00,West,271,14.0,18.0,52,0.00,,,0.00,0.000000,,2013-08-27 05:05:00,
2013-08-26 22:13:00,65.0,47.0,-100.00,West,271,14.0,18.0,52,0.00,,,0.00,0.000000,,2013-08-27 05:13:00,
2013-08-26 22:23:00,65.0,47.0,-100.00,West,271,14.0,18.0,52,0.00,,,0.00,0.000000,,2013-08-27 05:23:00,
2013-08-26 22:52:00,66.0,42.0,-100.00,WSW,257,11.0,18.0,42,0.00,,,0.00,0.000000,,2013-08-27 05:52:00,
2013-08-26 23:02:00,66.0,42.0,-100.00,WSW,257,11.0,18.0,42,0.00,,,0.00,0.000000,,2013-08-27 06:02:00,
2013-08-26 23:12:00,66.0,42.0,-100.00,WSW,257,11.0,18.0,42,0.00,,,0.00,0.000000,,2013-08-27 06:12:00,
2013-08-26 23:21:00,66.0,42.0,-100.00,WSW,257,11.0,18.0,42,0.00,,,0.00,0.000000,,2013-08-27 06:21:00,
2013-08-26 23:52:00,66.0,44.0,-100.00,West,262,11.0,16.0,45,0.00,,,0.00,0.000000,,2013-08-27 06:52:00,